Jeanie G — WDB2354 — position and weather

sailwx.info

Track history (hours):
 
Tides and Currents Weather Stations Pressure Air Temp Water Temp Dewpoint Dewpoint Depression Visibility Wind Speed Wind Dir Waves Ship Positions

Jeanie G

Owner: MARTIN OPERATING PARTNERSHIP LP, VIDOR, TX. More information available from US FCC via Universal Licensing System and Coast Guard Vessel Documentation Center.

Last reported at 2015-Mar-06 03:28 UTC. Time now 2015-Mar-07 00:16 UTC.
Position N 29°55' W 089°57'.

MMSI: 366875010.

Date/timePositionNaut miles runAvg speedWind from/ knotsBaromVisibWave heightAir tempDewpointWater temp
2015-Mar-06 03:28N 29°55' W 089°57'1 0.8
2015-Mar-06 02:30N 29°56' W 089°58'0 0.0
2015-Mar-06 01:31N 29°56' W 089°58'0 0.0
2015-Mar-06 00:17N 29°56' W 089°58'0 0.0
2015-Mar-05 23:33N 29°56' W 089°58'0 0.0
2015-Mar-05 12:07N 29°56' W 089°58'4 0.5
2015-Mar-05 04:10N 29°59' W 090°01'0 0.0
2015-Mar-05 03:23N 29°59' W 090°01'0 0.0
2015-Mar-05 02:14N 29°59' W 090°01'0 0.0
2015-Mar-05 01:32N 29°59' W 090°01'0 0.0
2015-Mar-05 00:16N 29°59' W 090°01'1 1.7
2015-Mar-04 23:27N 29°60' W 090°01'0 0.0
2015-Mar-04 22:31N 29°60' W 090°01'4 3.4
2015-Mar-04 21:24N 30°00' W 089°56'  
Track history (hours):
 
Tides and Currents Weather Stations Pressure Air Temp Water Temp Dewpoint Dewpoint Depression Visibility Wind Speed Wind Dir Waves Ship Positions

Jeanie G

Owner: MARTIN OPERATING PARTNERSHIP LP, VIDOR, TX. More information available from US FCC via Universal Licensing System and Coast Guard Vessel Documentation Center.

Last reported at 2015-Mar-06 03:28 UTC. Time now 2015-Mar-07 00:16 UTC.
Position N 29°55' W 089°57'.

MMSI: 366875010.

Date/timePositionNaut miles runAvg speedWind from/ knotsBaromVisibWave heightAir tempDewpointWater temp
2015-Mar-06 03:28N 29°55' W 089°57'1 0.8
2015-Mar-06 02:30N 29°56' W 089°58'0 0.0
2015-Mar-06 01:31N 29°56' W 089°58'0 0.0
2015-Mar-06 00:17N 29°56' W 089°58'0 0.0
2015-Mar-05 23:33N 29°56' W 089°58'0 0.0
2015-Mar-05 12:07N 29°56' W 089°58'4 0.5
2015-Mar-05 04:10N 29°59' W 090°01'0 0.0
2015-Mar-05 03:23N 29°59' W 090°01'0 0.0
2015-Mar-05 02:14N 29°59' W 090°01'0 0.0
2015-Mar-05 01:32N 29°59' W 090°01'0 0.0
2015-Mar-05 00:16N 29°59' W 090°01'1 1.7
2015-Mar-04 23:27N 29°60' W 090°01'0 0.0
2015-Mar-04 22:31N 29°60' W 090°01'4 3.4
2015-Mar-04 21:24N 30°00' W 089°56'  

Dump ship's entire track history